createdAt,value
2023-01-01T00:00:24.746Z,12.32
2023-01-01T00:03:12.926Z,12.25
2023-01-01T00:05:40.722Z,12.28
2023-01-01T00:08:09.005Z,12.26
2023-01-01T00:10:38.005Z,12.28
2023-01-01T00:13:06.425Z,12.26
2023-01-01T00:15:34.172Z,12.26
2023-01-01T00:18:02.252Z,12.30
2023-01-01T00:20:35.244Z,12.31
2023-01-01T00:23:04.089Z,12.27
2023-01-01T00:25:32.727Z,12.27
2023-01-01T00:28:01.334Z,12.27
2023-01-01T00:30:29.414Z,12.26
2023-01-01T00:32:57.695Z,12.25
2023-01-01T00:35:26.328Z,12.20
2023-01-01T00:37:54.792Z,12.19
2023-01-01T00:40:23.142Z,12.20
2023-01-01T00:42:51.222Z,12.15
2023-01-01T00:45:22.205Z,12.14
2023-01-01T00:47:52.167Z,12.18
2023-01-01T00:50:21.803Z,12.16
2023-01-01T00:52:50.326Z,12.19
2023-01-01T00:55:18.430Z,12.16
2023-01-01T00:57:46.849Z,12.08
2023-01-01T01:00:15.538Z,12.11
2023-01-01T01:02:44.211Z,12.14
2023-01-01T01:05:12.527Z,12.09
2023-01-01T01:07:41.765Z,12.11
2023-01-01T01:10:09.908Z,12.15
2023-01-01T01:12:38.655Z,12.07
2023-01-01T01:15:07.444Z,12.11
2023-01-01T01:17:37.785Z,12.07
2023-01-01T01:20:06.588Z,12.01
2023-01-01T01:22:35.077Z,12.09
2023-01-01T01:25:03.562Z,12.09
2023-01-01T01:27:32.152Z,12.16
2023-01-01T01:30:00.056Z,12.21
2023-01-01T01:32:27.903Z,12.17
2023-01-01T01:34:56.198Z,12.22
2023-01-01T01:37:24.024Z,12.21
2023-01-01T01:39:54.197Z,12.22
2023-01-01T01:42:22.656Z,12.18
2023-01-01T01:45:02.664Z,12.21
2023-01-01T01:47:50.911Z,12.25
2023-01-01T01:50:32.375Z,12.21
2023-01-01T01:53:24.552Z,12.24
2023-01-01T01:56:00.096Z,12.30
2023-01-01T01:58:30.010Z,12.33
2023-01-01T02:00:58.951Z,12.32
2023-01-01T02:03:37.194Z,12.38
2023-01-01T02:06:06.827Z,12.32
2023-01-01T02:08:36.182Z,12.38
2023-01-01T02:11:04.908Z,12.35
2023-01-01T02:13:32.876Z,12.33
2023-01-01T02:16:05.681Z,12.48
2023-01-01T02:19:08.563Z,12.48
2023-01-01T02:21:49.813Z,12.45
2023-01-01T02:24:36.352Z,12.58
2023-01-01T02:27:09.984Z,12.60
2023-01-01T02:29:42.498Z,12.65
2023-01-01T02:32:19.002Z,12.61
2023-01-01T02:34:56.265Z,12.60
2023-01-01T02:37:26.172Z,12.61
2023-01-01T02:39:58.547Z,12.60
2023-01-01T02:42:29.187Z,12.62
2023-01-01T02:44:58.625Z,12.61
2023-01-01T02:47:26.844Z,12.71
2023-01-01T02:49:59.745Z,12.69
2023-01-01T02:52:50.118Z,12.71
2023-01-01T02:55:20.916Z,12.73
2023-01-01T02:58:24.842Z,12.77
2023-01-01T03:00:58.496Z,12.73
2023-01-01T03:03:39.709Z,12.81
2023-01-01T03:06:55.254Z,12.84
2023-01-01T03:09:43.913Z,12.83
2023-01-01T03:12:23.514Z,12.86
2023-01-01T03:14:59.774Z,12.84
2023-01-01T03:17:33.718Z,12.93
2023-01-01T03:20:05.798Z,12.90
2023-01-01T03:25:08.432Z,12.98
2023-01-01T03:27:43.110Z,13.01
2023-01-01T03:30:12.505Z,13.03
2023-01-01T03:33:08.296Z,13.09
2023-01-01T03:35:40.869Z,13.12
2023-01-01T03:38:13.724Z,13.13
2023-01-01T03:40:44.023Z,13.15
2023-01-01T03:43:22.589Z,13.21
2023-01-01T03:45:51.320Z,13.17
2023-01-01T03:48:19.791Z,13.24
2023-01-01T03:51:08.951Z,13.23
2023-01-01T03:53:43.927Z,13.21
2023-01-01T03:56:36.184Z,13.18
2023-01-01T03:59:22.595Z,13.15
2023-01-01T04:01:58.143Z,13.13
2023-01-01T04:04:29.656Z,13.12
2023-01-01T04:07:02.039Z,13.06
2023-01-01T04:09:38.645Z,13.02
2023-01-01T04:12:07.338Z,12.99
2023-01-01T04:14:42.880Z,12.94
2023-01-01T04:17:12.283Z,12.97
2023-01-01T04:19:40.526Z,12.95
2023-01-01T04:22:08.954Z,12.96
2023-01-01T04:24:37.521Z,12.96
2023-01-01T04:27:06.114Z,13.01
2023-01-01T04:29:34.498Z,13.02
2023-01-01T04:32:02.512Z,13.04
2023-01-01T04:34:30.835Z,13.01
2023-01-01T04:36:58.800Z,13.02
2023-01-01T04:39:28.230Z,13.03
2023-01-01T04:41:56.764Z,12.97
2023-01-01T04:44:24.529Z,13.03
2023-01-01T04:46:56.924Z,13.04
2023-01-01T04:49:28.021Z,13.01
2023-01-01T04:51:56.400Z,12.98
2023-01-01T04:54:24.212Z,12.98
2023-01-01T04:56:52.759Z,13.01
2023-01-01T04:59:20.417Z,13.08
2023-01-01T05:01:49.880Z,13.12
2023-01-01T05:04:18.326Z,13.06
2023-01-01T05:06:47.958Z,13.06
2023-01-01T05:09:15.813Z,13.02
2023-01-01T05:11:44.083Z,13.05
2023-01-01T05:14:11.870Z,13.04
2023-01-01T05:16:40.649Z,13.03
2023-01-01T05:19:09.205Z,13.02
2023-01-01T05:21:39.827Z,13.02
2023-01-01T05:24:10.319Z,12.98
2023-01-01T05:26:42.096Z,13.01
2023-01-01T05:29:16.160Z,12.97
2023-01-01T05:34:59.983Z,12.92
2023-01-01T05:37:28.094Z,12.87
2023-01-01T05:39:56.513Z,12.88
2023-01-01T05:42:24.787Z,12.87
2023-01-01T05:44:52.597Z,12.87
2023-01-01T05:47:22.964Z,12.81
2023-01-01T05:49:50.831Z,12.86
2023-01-01T05:52:23.052Z,12.86
2023-01-01T05:54:54.752Z,12.84
2023-01-01T05:57:23.324Z,12.81
2023-01-01T05:59:51.055Z,12.74
2023-01-01T06:02:19.585Z,12.73
2023-01-01T06:04:47.411Z,12.72
2023-01-01T06:07:15.974Z,12.74
2023-01-01T06:09:43.717Z,12.73
2023-01-01T06:12:12.183Z,12.65
2023-01-01T06:14:39.964Z,12.71
2023-01-01T06:17:08.275Z,12.63
2023-01-01T06:19:36.045Z,12.60
2023-01-01T06:22:04.018Z,12.51
2023-01-01T06:24:38.646Z,12.48
2023-01-01T06:27:07.847Z,12.48
2023-01-01T06:29:35.683Z,12.48
2023-01-01T06:32:04.282Z,12.44
2023-01-01T06:34:31.944Z,12.42
2023-01-01T06:37:06.691Z,12.36
2023-01-01T06:39:35.001Z,12.26
2023-01-01T06:42:03.442Z,12.32
2023-01-01T06:44:31.138Z,12.24
2023-01-01T06:46:59.555Z,12.24
2023-01-01T06:49:27.310Z,12.22
2023-01-01T06:51:55.941Z,12.17
2023-01-01T06:54:24.016Z,12.18
2023-01-01T06:56:52.213Z,12.16
2023-01-01T06:59:20.184Z,12.23
2023-01-01T07:01:48.639Z,12.17
2023-01-01T07:04:16.983Z,12.17
2023-01-01T07:06:45.282Z,12.18
2023-01-01T07:09:13.137Z,12.23
2023-01-01T07:11:41.661Z,12.16
2023-01-01T07:14:09.739Z,12.17
2023-01-01T07:16:38.361Z,12.21
2023-01-01T07:19:06.127Z,12.20
2023-01-01T07:21:36.348Z,12.27
2023-01-01T07:24:05.992Z,12.36
2023-01-01T07:26:34.428Z,12.37
2023-01-01T07:29:07.546Z,12.42
2023-01-01T07:31:38.758Z,12.52
2023-01-01T07:34:08.416Z,12.55
2023-01-01T07:36:36.801Z,12.57
2023-01-01T07:39:05.268Z,12.69
2023-01-01T07:41:33.613Z,12.69
2023-01-01T07:44:01.538Z,12.72
2023-01-01T07:46:29.588Z,12.63
2023-01-01T07:48:59.037Z,12.74
2023-01-01T07:51:27.882Z,12.78
2023-01-01T07:53:58.234Z,12.88
2023-01-01T07:56:28.772Z,12.93
2023-01-01T07:58:56.480Z,12.94
2023-01-01T08:01:24.699Z,12.95
2023-01-01T08:03:53.239Z,12.99
2023-01-01T08:06:22.669Z,12.99
2023-01-01T08:08:50.547Z,13.11
2023-01-01T08:11:18.926Z,13.16
2023-01-01T08:13:46.737Z,13.21
2023-01-01T08:16:15.080Z,13.25
2023-01-01T08:18:43.014Z,13.27
2023-01-01T08:21:11.552Z,13.39
2023-01-01T08:23:39.322Z,13.48
2023-01-01T08:26:07.911Z,13.54
2023-01-01T08:28:36.556Z,13.68
2023-01-01T08:31:05.208Z,13.72
2023-01-01T08:33:33.119Z,13.82
2023-01-01T08:36:01.563Z,13.84
2023-01-01T08:38:29.159Z,13.87
2023-01-01T08:40:57.134Z,14.02
2023-01-01T08:43:25.623Z,14.06
2023-01-01T08:45:53.837Z,14.23
2023-01-01T08:48:27.177Z,14.25
2023-01-01T08:51:00.577Z,14.41
2023-01-01T08:53:30.255Z,14.50
2023-01-01T08:56:00.451Z,14.50
2023-01-01T08:58:28.665Z,14.64
2023-01-01T09:00:57.283Z,14.71
2023-01-01T09:03:25.151Z,14.88
2023-01-01T09:05:54.546Z,15.01
2023-01-01T09:08:23.353Z,15.20
2023-01-01T09:10:52.009Z,15.40
2023-01-01T09:13:22.375Z,15.54
2023-01-01T09:15:50.396Z,15.65
2023-01-01T09:18:18.762Z,15.68
2023-01-01T09:20:47.383Z,15.76
2023-01-01T09:23:15.284Z,15.78
2023-01-01T09:25:43.231Z,15.80
2023-01-01T09:28:15.018Z,15.76
2023-01-01T09:30:43.935Z,15.77
2023-01-01T09:33:11.701Z,15.81
2023-01-01T09:35:44.388Z,15.79
2023-01-01T09:38:13.105Z,15.85
2023-01-01T09:41:00.171Z,15.84
2023-01-01T09:44:07.274Z,15.92
2023-01-01T09:46:37.050Z,15.89
2023-01-01T09:49:10.804Z,15.93
2023-01-01T09:51:48.706Z,15.94
2023-01-01T09:54:38.311Z,16.00
2023-01-01T09:57:16.318Z,15.97
2023-01-01T09:59:47.578Z,16.02
2023-01-01T10:02:53.865Z,16.00
2023-01-01T10:05:49.775Z,16.03
2023-01-01T10:09:06.391Z,16.04
2023-01-01T10:12:04.800Z,16.08
2023-01-01T10:14:35.065Z,16.05
2023-01-01T10:17:06.991Z,16.00
2023-01-01T10:19:42.503Z,15.98
2023-01-01T10:22:23.333Z,16.05
2023-01-01T10:24:57.043Z,16.14
2023-01-01T10:27:35.060Z,16.18
2023-01-01T10:30:14.007Z,16.30
2023-01-01T10:32:44.028Z,16.46
2023-01-01T10:35:36.329Z,16.63
2023-01-01T10:38:05.733Z,16.69
2023-01-01T10:40:34.336Z,16.74
2023-01-01T10:43:04.170Z,16.78
2023-01-01T10:45:47.733Z,16.79
2023-01-01T10:48:21.437Z,16.85
2023-01-01T10:50:58.351Z,16.86
2023-01-01T10:53:32.949Z,16.84
2023-01-01T10:56:24.379Z,16.96
2023-01-01T10:58:57.239Z,17.02
2023-01-01T11:01:33.193Z,17.09
2023-01-01T11:04:14.232Z,17.15
2023-01-01T11:06:43.656Z,17.17
2023-01-01T11:09:26.959Z,17.17
2023-01-01T11:12:02.087Z,17.22
2023-01-01T11:14:41.819Z,17.24
2023-01-01T11:17:10.551Z,17.34
2023-01-01T11:19:43.003Z,17.41
2023-01-01T11:22:47.074Z,17.46
2023-01-01T11:25:21.705Z,17.33
2023-01-01T11:27:50.959Z,17.30
2023-01-01T11:30:29.632Z,17.17
2023-01-01T11:33:02.322Z,17.29
2023-01-01T11:35:33.978Z,17.30
2023-01-01T11:38:03.567Z,17.28
2023-01-01T11:40:38.476Z,17.33
2023-01-01T11:43:08.747Z,17.22
2023-01-01T11:45:42.080Z,17.36
2023-01-01T11:48:15.063Z,17.36
2023-01-01T11:50:54.475Z,17.40
2023-01-01T11:53:22.883Z,17.47
2023-01-01T11:56:08.436Z,17.48
2023-01-01T11:58:36.934Z,17.54
2023-01-01T12:01:10.987Z,17.56
2023-01-01T12:03:54.528Z,17.60
2023-01-01T12:06:26.984Z,17.67
2023-01-01T12:09:02.241Z,17.75
2023-01-01T12:11:53.763Z,17.74
2023-01-01T12:14:32.755Z,17.80
2023-01-01T12:17:05.682Z,17.83
2023-01-01T12:19:56.058Z,17.83
2023-01-01T12:22:24.640Z,17.73
2023-01-01T12:24:53.215Z,17.77
2023-01-01T12:27:48.617Z,17.70
2023-01-01T12:30:48.571Z,17.65
2023-01-01T12:33:39.278Z,17.58
2023-01-01T12:36:43.423Z,17.48
2023-01-01T12:39:32.951Z,17.43
2023-01-01T12:42:18.686Z,17.37
2023-01-01T12:45:02.466Z,17.31
2023-01-01T12:48:04.013Z,17.22
2023-01-01T12:50:57.195Z,17.18
2023-01-01T12:53:46.581Z,17.12
2023-01-01T12:56:23.132Z,17.09
2023-01-01T12:59:19.479Z,17.04
2023-01-01T13:01:48.251Z,16.99
2023-01-01T13:04:20.369Z,16.96
2023-01-01T13:06:51.283Z,16.92
2023-01-01T13:09:22.048Z,16.89
2023-01-01T13:12:04.620Z,16.84
2023-01-01T13:14:39.964Z,16.77
2023-01-01T13:17:27.433Z,16.71
2023-01-01T13:20:06.687Z,16.66
2023-01-01T13:22:34.642Z,16.59
2023-01-01T13:25:05.173Z,16.54
2023-01-01T13:28:01.476Z,16.54
2023-01-01T13:30:36.555Z,16.40
2023-01-01T13:33:30.100Z,16.34
2023-01-01T13:36:19.322Z,16.31
2023-01-01T13:38:54.744Z,16.32
2023-01-01T13:41:40.066Z,16.23
2023-01-01T13:44:08.891Z,16.22
2023-01-01T13:46:52.404Z,16.19
2023-01-01T13:49:45.682Z,16.11
2023-01-01T13:52:47.733Z,16.07
2023-01-01T13:55:56.461Z,15.99
2023-01-01T13:58:27.931Z,16.00
2023-01-01T14:01:08.377Z,15.91
2023-01-01T14:03:42.021Z,15.83
2023-01-01T14:06:35.310Z,15.76
2023-01-01T14:09:14.679Z,15.77
2023-01-01T14:11:42.483Z,15.73
2023-01-01T14:14:31.707Z,15.68
2023-01-01T14:17:01.580Z,15.61
2023-01-01T14:19:30.198Z,15.56
2023-01-01T14:21:58.500Z,15.56
2023-01-01T14:24:26.836Z,15.52
2023-01-01T14:26:55.945Z,15.52
2023-01-01T14:29:30.446Z,15.53
2023-01-01T14:32:00.174Z,15.46
2023-01-01T14:34:32.943Z,15.46
2023-01-01T14:37:02.590Z,15.45
2023-01-01T14:39:35.687Z,15.24
2023-01-01T14:42:08.684Z,15.41
2023-01-01T14:44:40.090Z,15.36
2023-01-01T14:47:28.154Z,15.33
2023-01-01T14:50:13.929Z,15.35
2023-01-01T14:52:42.335Z,15.28
2023-01-01T14:55:18.047Z,15.31
2023-01-01T14:57:56.527Z,15.29
2023-01-01T15:00:27.975Z,15.25
2023-01-01T15:02:55.560Z,15.18
2023-01-01T15:05:23.504Z,15.27
2023-01-01T15:07:59.576Z,15.24
2023-01-01T15:10:28.923Z,15.19
2023-01-01T15:12:58.029Z,15.23
2023-01-01T15:15:54.565Z,15.18
2023-01-01T15:18:41.866Z,15.15
2023-01-01T15:21:37.732Z,15.12
2023-01-01T15:24:15.323Z,15.04
2023-01-01T15:26:57.819Z,14.94
2023-01-01T15:29:39.962Z,14.90
2023-01-01T15:32:11.244Z,14.87
2023-01-01T15:34:53.668Z,14.79
2023-01-01T15:37:27.379Z,14.75
2023-01-01T15:39:58.186Z,14.71
2023-01-01T15:42:37.487Z,14.63
2023-01-01T15:45:23.348Z,14.56
2023-01-01T15:47:52.545Z,14.51
2023-01-01T15:50:29.405Z,14.47
2023-01-01T15:53:08.642Z,14.39
2023-01-01T15:55:37.465Z,14.31
2023-01-01T15:58:05.110Z,14.25
2023-01-01T16:00:36.105Z,14.21
2023-01-01T16:03:21.514Z,14.22
2023-01-01T16:05:51.231Z,14.15
2023-01-01T16:08:20.336Z,14.07
2023-01-01T16:10:51.589Z,14.03
2023-01-01T16:13:19.588Z,13.92
2023-01-01T16:15:54.895Z,13.90
2023-01-01T16:18:26.609Z,13.85
2023-01-01T16:20:55.148Z,13.81
2023-01-01T16:23:23.140Z,13.79
2023-01-01T16:25:50.473Z,13.73
2023-01-01T16:28:18.237Z,13.69
2023-01-01T16:30:47.268Z,13.60
2023-01-01T16:33:17.282Z,13.57
2023-01-01T16:35:45.024Z,13.57
2023-01-01T16:38:12.538Z,13.52
2023-01-01T16:40:39.985Z,13.44
2023-01-01T16:43:15.785Z,13.45
2023-01-01T16:45:44.163Z,13.40
2023-01-01T16:48:12.135Z,13.41
2023-01-01T16:50:39.515Z,13.31
2023-01-01T16:53:07.062Z,13.30
2023-01-01T16:55:34.587Z,13.25
2023-01-01T16:58:38.622Z,13.22
2023-01-01T17:00:49.788Z,13.26
2023-01-01T17:03:17.463Z,13.21
2023-01-01T17:05:44.919Z,13.22
2023-01-01T17:08:12.623Z,13.16
2023-01-01T17:10:40.078Z,13.15
2023-01-01T17:13:07.861Z,13.17
2023-01-01T17:15:35.352Z,13.14
2023-01-01T17:18:03.026Z,13.09
2023-01-01T17:20:30.578Z,13.05
2023-01-01T17:22:58.232Z,13.05
2023-01-01T17:25:25.679Z,13.07
2023-01-01T17:27:53.341Z,12.99
2023-01-01T17:30:20.631Z,12.96
2023-01-01T17:32:48.240Z,12.93
2023-01-01T17:35:15.699Z,12.88
2023-01-01T17:37:43.372Z,12.84
2023-01-01T17:40:11.905Z,12.77
2023-01-01T17:42:40.033Z,12.66
2023-01-01T17:45:08.423Z,12.69
2023-01-01T17:47:36.079Z,12.65
2023-01-01T17:50:03.767Z,12.59
2023-01-01T17:52:31.628Z,12.59
2023-01-01T17:54:59.238Z,12.56
2023-01-01T17:57:27.093Z,12.46
2023-01-01T17:59:59.008Z,12.48
2023-01-01T18:02:27.004Z,12.49
2023-01-01T18:04:54.922Z,12.44
2023-01-01T18:07:22.508Z,12.36
2023-01-01T18:09:49.795Z,12.36
2023-01-01T18:12:17.581Z,12.31
2023-01-01T18:14:44.715Z,12.29
2023-01-01T18:17:12.721Z,12.20
2023-01-01T18:19:40.144Z,12.14
2023-01-01T18:22:07.888Z,12.15
2023-01-01T18:24:35.964Z,12.09
2023-01-01T18:27:03.833Z,11.99
2023-01-01T18:29:31.209Z,12.02
2023-01-01T18:31:58.694Z,11.97
2023-01-01T18:34:26.757Z,12.00
2023-01-01T18:36:56.133Z,12.04
2023-01-01T18:39:33.594Z,12.03
2023-01-01T18:42:38.210Z,12.00
2023-01-01T18:45:24.404Z,12.07
2023-01-01T18:47:52.267Z,11.99
2023-01-01T18:50:25.167Z,11.97
2023-01-01T18:52:56.453Z,11.92
2023-01-01T18:55:28.284Z,12.03
2023-01-01T18:58:00.472Z,11.98
2023-01-01T19:00:31.074Z,12.00
2023-01-01T19:03:03.854Z,11.95
2023-01-01T19:05:34.770Z,11.95
2023-01-01T19:08:08.894Z,11.97
2023-01-01T19:10:53.205Z,11.98
2023-01-01T19:13:25.328Z,12.02
2023-01-01T19:16:03.610Z,11.98
2023-01-01T19:18:33.800Z,12.02
2023-01-01T19:21:08.028Z,11.97
2023-01-01T19:23:39.158Z,12.00
2023-01-01T19:26:40.895Z,12.00
2023-01-01T19:29:19.418Z,11.69
2023-01-01T19:31:49.028Z,11.94
2023-01-01T19:34:18.126Z,11.99
2023-01-01T19:36:46.680Z,11.97
2023-01-01T19:39:15.753Z,11.97
2023-01-01T19:41:43.991Z,11.96
2023-01-01T19:44:12.470Z,11.94
2023-01-01T19:46:40.299Z,11.93
2023-01-01T19:49:11.133Z,11.92
2023-01-01T19:51:46.366Z,11.92
2023-01-01T19:54:15.652Z,11.79
2023-01-01T19:56:48.228Z,11.83
2023-01-01T19:59:18.566Z,11.88
2023-01-01T20:01:46.095Z,11.91
2023-01-01T20:04:17.373Z,11.84
2023-01-01T20:06:45.773Z,11.78
2023-01-01T20:09:14.597Z,11.67
2023-01-01T20:11:50.666Z,11.68
2023-01-01T20:14:22.789Z,11.55
2023-01-01T20:16:51.565Z,11.57
2023-01-01T20:19:27.981Z,11.59
2023-01-01T20:22:18.051Z,11.55
2023-01-01T20:24:49.733Z,11.46
2023-01-01T20:27:25.134Z,11.45
2023-01-01T20:29:57.156Z,11.43
2023-01-01T20:32:28.612Z,11.45
2023-01-01T20:34:56.440Z,11.36
2023-01-01T20:37:42.067Z,11.35
2023-01-01T20:40:11.522Z,11.36
2023-01-01T20:42:39.000Z,11.35
2023-01-01T20:45:07.901Z,11.25
2023-01-01T20:47:36.906Z,11.25
2023-01-01T20:50:05.333Z,11.22
2023-01-01T20:52:32.603Z,11.21
2023-01-01T20:55:00.188Z,11.15
2023-01-01T20:57:27.962Z,11.20
2023-01-01T20:59:55.848Z,11.10
2023-01-01T21:02:23.491Z,11.08
2023-01-01T21:04:51.710Z,11.06
2023-01-01T21:07:18.980Z,10.99
2023-01-01T21:09:47.009Z,10.99
2023-01-01T21:12:14.410Z,10.87
2023-01-01T21:14:42.405Z,10.83
2023-01-01T21:17:29.505Z,10.77
2023-01-01T21:19:59.941Z,10.74
2023-01-01T21:22:28.106Z,10.71
2023-01-01T21:25:16.916Z,10.67
2023-01-01T21:27:44.813Z,10.67
2023-01-01T21:30:13.438Z,10.65
2023-01-01T21:32:46.543Z,10.59
2023-01-01T21:35:23.566Z,10.56
2023-01-01T21:37:53.519Z,10.53
2023-01-01T21:40:59.642Z,10.48
2023-01-01T21:43:30.023Z,10.44
2023-01-01T21:46:36.932Z,10.42
2023-01-01T21:49:22.912Z,10.37
2023-01-01T21:51:55.030Z,10.32
2023-01-01T21:54:33.679Z,10.30
2023-01-01T21:57:06.623Z,10.24
2023-01-01T21:59:36.836Z,10.21
2023-01-01T22:02:05.751Z,10.18
2023-01-01T22:04:51.860Z,10.12
2023-01-01T22:10:25.366Z,10.17
2023-01-01T22:12:57.708Z,10.09
2023-01-01T22:15:31.236Z,10.00
2023-01-01T22:18:19.334Z,10.01
2023-01-01T22:20:47.108Z,9.94
2023-01-01T22:23:24.412Z,9.70
2023-01-01T22:25:52.472Z,9.91
2023-01-01T22:28:26.172Z,9.87
2023-01-01T22:30:55.739Z,9.82
2023-01-01T22:33:28.498Z,9.83
2023-01-01T22:35:56.948Z,9.70
2023-01-01T22:38:32.665Z,9.74
2023-01-01T22:41:00.286Z,9.75
2023-01-01T22:43:39.774Z,9.69
2023-01-01T22:46:39.469Z,9.73
2023-01-01T22:49:20.316Z,9.73
2023-01-01T22:51:47.895Z,9.70
2023-01-01T22:54:15.597Z,9.79
2023-01-01T22:56:42.858Z,9.78
2023-01-01T22:59:10.264Z,9.80
2023-01-01T23:01:37.987Z,9.79
2023-01-01T23:04:05.484Z,9.82
2023-01-01T23:06:33.411Z,9.83
2023-01-01T23:09:01.186Z,9.81
2023-01-01T23:11:28.657Z,9.84
2023-01-01T23:14:14.582Z,9.88
2023-01-01T23:16:41.862Z,9.90
2023-01-01T23:19:09.471Z,9.90
2023-01-01T23:21:36.880Z,9.89
2023-01-01T23:24:06.614Z,9.88
2023-01-01T23:26:34.019Z,9.81
2023-01-01T23:29:02.089Z,9.84
2023-01-01T23:31:29.721Z,9.78
2023-01-01T23:33:57.771Z,9.75
2023-01-01T23:36:25.900Z,9.77
2023-01-01T23:38:53.595Z,9.78
2023-01-01T23:41:20.989Z,9.80
2023-01-01T23:43:48.844Z,9.81
2023-01-01T23:46:18.578Z,9.66
2023-01-01T23:48:47.246Z,9.75
2023-01-01T23:51:15.079Z,9.75
2023-01-01T23:53:42.735Z,9.74
2023-01-01T23:56:10.059Z,9.78
2023-01-01T23:58:37.603Z,9.70
